KLIC

Limon Municipal Airport

Limon, Colorado, USA
METAR KLIC 172055Z AUTO 18012G19KT 10SM CLR 10/M13 A3003 RMK AO2 SLP167 T01001128 58021
Observed Flight Rules
Feb-17 @ 20:55 UTC (38 minutes ago) Visual Flight Rules
Wind Visibility Clouds
180° at 12 knots
 Gusting to 19 knots
10 miles
  • Clear skies
Temperatures Readings
Current 10°C / 50°F
Dewpoint -13°C / 9°F
Humidity 19%
Altimeter 30.03" Hg
Pressure 1016.7 hPa
Elevation 1630
METAR KLIC 172055Z AUTO 18012G19KT 10SM CLR 10/M13 A3003 RMK AO2 SLP167 T01001128 58021
Observed Flight Rules
Feb-17 @ 20:55 UTC
(38 minutes ago)
VFR
Wind Visibility
180° at 12 knots
 Gusting to 19 knots
10 miles
Clouds
  • Clear skies
Temperature Dewpoint
10°C / 50°F -13°C / 9°F
Humidity Altimeter Pressure
19% 30.03" Hg 1016.7 hPa